sensor_id;sensor_type;location;lat;lon;timestamp;P1;durP1;ratioP1;P2;durP2;ratioP2
34639;SDS011;22600;48.186;11.526;2023-03-01T00:01:26;8.75;;;6.32;;
34639;SDS011;22600;48.186;11.526;2023-03-01T00:03:53;8.10;;;6.03;;
34639;SDS011;22600;48.186;11.526;2023-03-01T00:06:20;8.75;;;6.55;;
34639;SDS011;22600;48.186;11.526;2023-03-01T00:08:46;9.07;;;6.25;;
34639;SDS011;22600;48.186;11.526;2023-03-01T00:13:46;10.88;;;5.80;;
34639;SDS011;22600;48.186;11.526;2023-03-01T00:16:19;8.40;;;6.20;;
34639;SDS011;22600;48.186;11.526;2023-03-01T00:18:47;9.95;;;6.47;;
34639;SDS011;22600;48.186;11.526;2023-03-01T00:21:13;9.63;;;6.70;;
34639;SDS011;22600;48.186;11.526;2023-03-01T00:23:38;8.05;;;6.25;;
34639;SDS011;22600;48.186;11.526;2023-03-01T00:26:08;8.68;;;6.00;;
34639;SDS011;22600;48.186;11.526;2023-03-01T00:31:10;8.73;;;6.03;;
34639;SDS011;22600;48.186;11.526;2023-03-01T00:33:40;7.60;;;5.82;;
34639;SDS011;22600;48.186;11.526;2023-03-01T00:36:06;8.43;;;5.88;;
34639;SDS011;22600;48.186;11.526;2023-03-01T00:38:36;9.60;;;6.15;;
34639;SDS011;22600;48.186;11.526;2023-03-01T00:41:06;7.57;;;5.70;;
34639;SDS011;22600;48.186;11.526;2023-03-01T00:43:33;9.70;;;5.68;;
34639;SDS011;22600;48.186;11.526;2023-03-01T00:46:04;7.90;;;5.63;;
34639;SDS011;22600;48.186;11.526;2023-03-01T00:48:35;8.60;;;5.80;;
34639;SDS011;22600;48.186;11.526;2023-03-01T00:51:10;8.32;;;6.25;;
34639;SDS011;22600;48.186;11.526;2023-03-01T00:53:38;8.30;;;6.10;;
34639;SDS011;22600;48.186;11.526;2023-03-01T00:56:05;7.88;;;5.97;;
34639;SDS011;22600;48.186;11.526;2023-03-01T00:58:32;8.88;;;5.88;;
34639;SDS011;22600;48.186;11.526;2023-03-01T01:00:58;7.82;;;5.95;;
34639;SDS011;22600;48.186;11.526;2023-03-01T01:03:24;8.63;;;6.25;;
34639;SDS011;22600;48.186;11.526;2023-03-01T01:05:50;7.80;;;5.53;;
34639;SDS011;22600;48.186;11.526;2023-03-01T01:08:19;8.80;;;6.10;;
34639;SDS011;22600;48.186;11.526;2023-03-01T01:10:46;10.30;;;5.95;;
34639;SDS011;22600;48.186;11.526;2023-03-01T01:13:12;8.13;;;5.63;;
34639;SDS011;22600;48.186;11.526;2023-03-01T01:15:38;9.10;;;5.82;;
34639;SDS011;22600;48.186;11.526;2023-03-01T01:18:04;8.88;;;6.00;;
34639;SDS011;22600;48.186;11.526;2023-03-01T01:20:31;8.30;;;6.25;;
34639;SDS011;22600;48.186;11.526;2023-03-01T01:22:57;8.77;;;5.57;;
34639;SDS011;22600;48.186;11.526;2023-03-01T01:25:23;7.63;;;5.68;;
34639;SDS011;22600;48.186;11.526;2023-03-01T01:27:50;9.20;;;5.68;;
34639;SDS011;22600;48.186;11.526;2023-03-01T01:30:16;7.57;;;5.65;;
34639;SDS011;22600;48.186;11.526;2023-03-01T01:32:42;8.07;;;5.88;;
34639;SDS011;22600;48.186;11.526;2023-03-01T01:35:07;6.50;;;5.32;;
34639;SDS011;22600;48.186;11.526;2023-03-01T01:37:33;7.20;;;5.80;;
34639;SDS011;22600;48.186;11.526;2023-03-01T01:40:02;8.57;;;5.65;;
34639;SDS011;22600;48.186;11.526;2023-03-01T01:42:31;7.53;;;5.82;;
34639;SDS011;22600;48.186;11.526;2023-03-01T01:45:24;7.57;;;5.47;;
34639;SDS011;22600;48.186;11.526;2023-03-01T01:47:58;7.72;;;5.93;;
34639;SDS011;22600;48.186;11.526;2023-03-01T01:50:29;8.38;;;5.55;;
34639;SDS011;22600;48.186;11.526;2023-03-01T01:53:02;8.35;;;5.78;;
34639;SDS011;22600;48.186;11.526;2023-03-01T01:55:34;8.57;;;5.47;;
34639;SDS011;22600;48.186;11.526;2023-03-01T01:58:02;6.75;;;5.18;;
34639;SDS011;22600;48.186;11.526;2023-03-01T02:00:30;6.65;;;5.10;;
34639;SDS011;22600;48.186;11.526;2023-03-01T02:03:00;8.55;;;5.50;;
34639;SDS011;22600;48.186;11.526;2023-03-01T02:05:35;7.65;;;5.38;;
34639;SDS011;22600;48.186;11.526;2023-03-01T02:08:08;7.22;;;5.22;;
34639;SDS011;22600;48.186;11.526;2023-03-01T02:10:37;10.10;;;5.30;;
34639;SDS011;22600;48.186;11.526;2023-03-01T02:13:03;10.32;;;5.57;;
34639;SDS011;22600;48.186;11.526;2023-03-01T02:15:35;7.15;;;5.43;;
34639;SDS011;22600;48.186;11.526;2023-03-01T02:18:03;8.35;;;5.30;;
34639;SDS011;22600;48.186;11.526;2023-03-01T02:20:34;7.03;;;5.30;;
34639;SDS011;22600;48.186;11.526;2023-03-01T02:23:07;7.13;;;5.20;;
34639;SDS011;22600;48.186;11.526;2023-03-01T02:25:39;7.45;;;5.65;;
34639;SDS011;22600;48.186;11.526;2023-03-01T02:30:43;9.95;;;5.43;;
34639;SDS011;22600;48.186;11.526;2023-03-01T02:33:31;6.88;;;5.13;;
34639;SDS011;22600;48.186;11.526;2023-03-01T02:36:01;8.35;;;4.95;;
34639;SDS011;22600;48.186;11.526;2023-03-01T02:38:32;8.05;;;5.45;;
34639;SDS011;22600;48.186;11.526;2023-03-01T02:40:58;7.40;;;5.32;;
34639;SDS011;22600;48.186;11.526;2023-03-01T02:43:25;7.07;;;5.43;;
34639;SDS011;22600;48.186;11.526;2023-03-01T02:45:57;6.85;;;5.30;;
34639;SDS011;22600;48.186;11.526;2023-03-01T02:48:24;8.63;;;5.03;;
34639;SDS011;22600;48.186;11.526;2023-03-01T02:53:28;5.88;;;4.90;;
34639;SDS011;22600;48.186;11.526;2023-03-01T02:56:00;6.72;;;4.85;;
34639;SDS011;22600;48.186;11.526;2023-03-01T02:58:26;7.63;;;4.88;;
34639;SDS011;22600;48.186;11.526;2023-03-01T03:00:52;8.20;;;4.78;;
34639;SDS011;22600;48.186;11.526;2023-03-01T03:03:19;8.48;;;5.32;;
34639;SDS011;22600;48.186;11.526;2023-03-01T03:05:45;7.93;;;5.60;;
34639;SDS011;22600;48.186;11.526;2023-03-01T03:08:12;7.07;;;4.70;;
34639;SDS011;22600;48.186;11.526;2023-03-01T03:10:39;6.55;;;5.10;;
34639;SDS011;22600;48.186;11.526;2023-03-01T03:13:06;5.85;;;4.82;;
34639;SDS011;22600;48.186;11.526;2023-03-01T03:15:34;13.65;;;5.35;;
34639;SDS011;22600;48.186;11.526;2023-03-01T03:18:01;7.00;;;5.43;;
34639;SDS011;22600;48.186;11.526;2023-03-01T03:20:28;7.53;;;5.18;;
34639;SDS011;22600;48.186;11.526;2023-03-01T03:22:54;6.03;;;4.65;;
34639;SDS011;22600;48.186;11.526;2023-03-01T03:25:21;6.68;;;4.97;;
34639;SDS011;22600;48.186;11.526;2023-03-01T03:27:48;6.60;;;4.85;;
34639;SDS011;22600;48.186;11.526;2023-03-01T03:30:16;7.93;;;4.90;;
34639;SDS011;22600;48.186;11.526;2023-03-01T03:32:44;5.93;;;4.63;;
34639;SDS011;22600;48.186;11.526;2023-03-01T03:35:18;7.05;;;4.80;;
34639;SDS011;22600;48.186;11.526;2023-03-01T03:37:45;5.85;;;4.90;;
34639;SDS011;22600;48.186;11.526;2023-03-01T03:40:37;6.72;;;4.80;;
34639;SDS011;22600;48.186;11.526;2023-03-01T03:43:05;6.68;;;5.00;;
34639;SDS011;22600;48.186;11.526;2023-03-01T03:45:33;6.45;;;4.97;;
34639;SDS011;22600;48.186;11.526;2023-03-01T03:48:00;5.60;;;4.68;;
34639;SDS011;22600;48.186;11.526;2023-03-01T03:50:26;6.43;;;5.00;;
34639;SDS011;22600;48.186;11.526;2023-03-01T03:52:52;8.18;;;5.10;;
34639;SDS011;22600;48.186;11.526;2023-03-01T03:55:17;6.78;;;5.00;;
34639;SDS011;22600;48.186;11.526;2023-03-01T03:57:44;5.93;;;4.82;;
34639;SDS011;22600;48.186;11.526;2023-03-01T04:00:16;6.28;;;4.45;;
34639;SDS011;22600;48.186;11.526;2023-03-01T04:02:44;6.03;;;4.93;;
34639;SDS011;22600;48.186;11.526;2023-03-01T04:05:12;6.50;;;4.80;;
34639;SDS011;22600;48.186;11.526;2023-03-01T04:07:40;7.35;;;4.88;;
34639;SDS011;22600;48.186;11.526;2023-03-01T04:10:10;6.30;;;4.80;;
34639;SDS011;22600;48.186;11.526;2023-03-01T04:12:37;8.88;;;4.90;;
34639;SDS011;22600;48.186;11.526;2023-03-01T04:15:04;6.50;;;4.70;;
34639;SDS011;22600;48.186;11.526;2023-03-01T04:17:46;5.47;;;4.63;;
34639;SDS011;22600;48.186;11.526;2023-03-01T04:20:13;5.22;;;4.45;;
34639;SDS011;22600;48.186;11.526;2023-03-01T04:22:49;6.43;;;4.63;;
34639;SDS011;22600;48.186;11.526;2023-03-01T04:25:16;8.32;;;5.28;;
34639;SDS011;22600;48.186;11.526;2023-03-01T04:27:41;7.18;;;4.50;;
34639;SDS011;22600;48.186;11.526;2023-03-01T04:30:07;7.20;;;5.07;;
34639;SDS011;22600;48.186;11.526;2023-03-01T04:32:34;6.30;;;4.55;;
34639;SDS011;22600;48.186;11.526;2023-03-01T04:34:59;6.55;;;4.80;;
34639;SDS011;22600;48.186;11.526;2023-03-01T04:37:25;6.15;;;4.60;;
34639;SDS011;22600;48.186;11.526;2023-03-01T04:39:52;6.57;;;4.70;;
34639;SDS011;22600;48.186;11.526;2023-03-01T04:42:18;5.75;;;4.57;;
34639;SDS011;22600;48.186;11.526;2023-03-01T04:44:44;5.15;;;4.50;;
34639;SDS011;22600;48.186;11.526;2023-03-01T04:47:11;8.10;;;4.85;;
34639;SDS011;22600;48.186;11.526;2023-03-01T04:49:37;6.55;;;4.80;;
34639;SDS011;22600;48.186;11.526;2023-03-01T04:52:03;6.03;;;4.68;;
34639;SDS011;22600;48.186;11.526;2023-03-01T04:54:32;7.05;;;4.75;;
34639;SDS011;22600;48.186;11.526;2023-03-01T04:56:59;5.47;;;4.30;;
34639;SDS011;22600;48.186;11.526;2023-03-01T04:59:26;7.35;;;4.47;;
34639;SDS011;22600;48.186;11.526;2023-03-01T05:01:52;7.35;;;4.75;;
34639;SDS011;22600;48.186;11.526;2023-03-01T05:04:20;6.18;;;4.45;;
34639;SDS011;22600;48.186;11.526;2023-03-01T05:06:49;5.50;;;4.50;;
34639;SDS011;22600;48.186;11.526;2023-03-01T05:09:15;6.10;;;4.35;;
34639;SDS011;22600;48.186;11.526;2023-03-01T05:11:41;6.57;;;4.50;;
34639;SDS011;22600;48.186;11.526;2023-03-01T05:14:07;5.07;;;4.35;;
34639;SDS011;22600;48.186;11.526;2023-03-01T05:16:34;5.97;;;4.40;;
34639;SDS011;22600;48.186;11.526;2023-03-01T05:19:01;6.28;;;4.47;;
34639;SDS011;22600;48.186;11.526;2023-03-01T05:21:36;5.15;;;4.32;;
34639;SDS011;22600;48.186;11.526;2023-03-01T05:24:22;6.07;;;4.35;;
34639;SDS011;22600;48.186;11.526;2023-03-01T05:26:48;5.70;;;4.35;;
34639;SDS011;22600;48.186;11.526;2023-03-01T05:29:14;7.68;;;4.60;;
34639;SDS011;22600;48.186;11.526;2023-03-01T05:31:40;5.47;;;4.22;;
34639;SDS011;22600;48.186;11.526;2023-03-01T05:34:05;8.10;;;4.20;;
34639;SDS011;22600;48.186;11.526;2023-03-01T05:36:31;7.03;;;4.40;;
34639;SDS011;22600;48.186;11.526;2023-03-01T05:38:57;6.32;;;4.03;;
34639;SDS011;22600;48.186;11.526;2023-03-01T05:41:22;6.10;;;4.30;;
34639;SDS011;22600;48.186;11.526;2023-03-01T05:43:48;5.63;;;4.47;;
34639;SDS011;22600;48.186;11.526;2023-03-01T05:46:14;5.38;;;4.28;;
34639;SDS011;22600;48.186;11.526;2023-03-01T05:48:40;6.03;;;4.40;;
34639;SDS011;22600;48.186;11.526;2023-03-01T05:51:05;6.05;;;4.03;;
34639;SDS011;22600;48.186;11.526;2023-03-01T05:53:31;6.90;;;4.28;;
34639;SDS011;22600;48.186;11.526;2023-03-01T05:55:57;5.75;;;4.40;;
34639;SDS011;22600;48.186;11.526;2023-03-01T05:58:23;6.72;;;4.63;;
34639;SDS011;22600;48.186;11.526;2023-03-01T06:00:49;7.13;;;4.50;;
34639;SDS011;22600;48.186;11.526;2023-03-01T06:03:15;6.38;;;4.55;;
34639;SDS011;22600;48.186;11.526;2023-03-01T06:05:42;5.70;;;4.22;;
34639;SDS011;22600;48.186;11.526;2023-03-01T06:08:09;6.30;;;4.57;;
34639;SDS011;22600;48.186;11.526;2023-03-01T06:10:35;7.72;;;4.40;;
34639;SDS011;22600;48.186;11.526;2023-03-01T06:13:02;6.25;;;4.60;;
34639;SDS011;22600;48.186;11.526;2023-03-01T06:15:28;6.53;;;4.38;;
34639;SDS011;22600;48.186;11.526;2023-03-01T06:17:54;6.50;;;4.25;;
34639;SDS011;22600;48.186;11.526;2023-03-01T06:20:24;5.30;;;4.10;;
34639;SDS011;22600;48.186;11.526;2023-03-01T06:22:51;6.47;;;4.47;;
34639;SDS011;22600;48.186;11.526;2023-03-01T06:25:19;6.40;;;4.35;;
34639;SDS011;22600;48.186;11.526;2023-03-01T06:27:47;7.35;;;4.25;;
34639;SDS011;22600;48.186;11.526;2023-03-01T06:30:14;5.90;;;4.50;;
34639;SDS011;22600;48.186;11.526;2023-03-01T06:32:41;6.55;;;4.10;;
34639;SDS011;22600;48.186;11.526;2023-03-01T06:35:07;9.35;;;3.97;;
34639;SDS011;22600;48.186;11.526;2023-03-01T06:37:34;7.43;;;4.60;;
34639;SDS011;22600;48.186;11.526;2023-03-01T06:40:00;7.70;;;5.00;;
34639;SDS011;22600;48.186;11.526;2023-03-01T06:42:32;67.85;;;18.67;;
34639;SDS011;22600;48.186;11.526;2023-03-01T06:44:59;56.58;;;16.40;;
34639;SDS011;22600;48.186;11.526;2023-03-01T06:47:25;36.20;;;12.30;;
34639;SDS011;22600;48.186;11.526;2023-03-01T06:49:50;25.70;;;9.98;;
34639;SDS011;22600;48.186;11.526;2023-03-01T06:52:16;33.47;;;11.02;;
34639;SDS011;22600;48.186;11.526;2023-03-01T06:54:41;31.02;;;10.88;;
34639;SDS011;22600;48.186;11.526;2023-03-01T06:57:07;28.17;;;10.10;;
34639;SDS011;22600;48.186;11.526;2023-03-01T06:59:32;22.92;;;9.40;;
34639;SDS011;22600;48.186;11.526;2023-03-01T07:01:58;22.42;;;8.63;;
34639;SDS011;22600;48.186;11.526;2023-03-01T07:04:24;24.08;;;8.88;;
34639;SDS011;22600;48.186;11.526;2023-03-01T07:06:49;20.63;;;7.82;;
34639;SDS011;22600;48.186;11.526;2023-03-01T07:09:20;18.75;;;7.78;;
34639;SDS011;22600;48.186;11.526;2023-03-01T07:11:49;20.00;;;8.48;;
34639;SDS011;22600;48.186;11.526;2023-03-01T07:14:15;18.70;;;8.10;;
34639;SDS011;22600;48.186;11.526;2023-03-01T07:16:41;20.17;;;7.95;;
34639;SDS011;22600;48.186;11.526;2023-03-01T07:19:07;16.45;;;7.30;;
34639;SDS011;22600;48.186;11.526;2023-03-01T07:21:32;14.82;;;7.65;;
34639;SDS011;22600;48.186;11.526;2023-03-01T07:23:58;15.32;;;7.78;;
34639;SDS011;22600;48.186;11.526;2023-03-01T07:26:23;18.10;;;7.53;;
34639;SDS011;22600;48.186;11.526;2023-03-01T07:28:49;15.15;;;7.22;;
34639;SDS011;22600;48.186;11.526;2023-03-01T07:31:14;17.42;;;7.68;;
34639;SDS011;22600;48.186;11.526;2023-03-01T07:33:40;16.25;;;7.15;;
34639;SDS011;22600;48.186;11.526;2023-03-01T07:36:06;13.50;;;6.78;;
34639;SDS011;22600;48.186;11.526;2023-03-01T07:38:32;17.42;;;7.35;;
34639;SDS011;22600;48.186;11.526;2023-03-01T07:40:58;15.20;;;7.05;;
34639;SDS011;22600;48.186;11.526;2023-03-01T07:43:25;16.17;;;7.72;;
34639;SDS011;22600;48.186;11.526;2023-03-01T07:45:51;16.33;;;7.57;;
34639;SDS011;22600;48.186;11.526;2023-03-01T07:48:16;16.65;;;7.60;;
34639;SDS011;22600;48.186;11.526;2023-03-01T07:50:42;18.63;;;6.97;;
34639;SDS011;22600;48.186;11.526;2023-03-01T07:53:08;15.93;;;7.25;;
34639;SDS011;22600;48.186;11.526;2023-03-01T07:55:34;17.42;;;7.28;;
34639;SDS011;22600;48.186;11.526;2023-03-01T07:58:00;14.00;;;7.28;;
34639;SDS011;22600;48.186;11.526;2023-03-01T08:00:26;15.15;;;7.35;;
34639;SDS011;22600;48.186;11.526;2023-03-01T08:02:52;13.80;;;6.82;;
34639;SDS011;22600;48.186;11.526;2023-03-01T08:05:17;16.80;;;7.38;;
34639;SDS011;22600;48.186;11.526;2023-03-01T08:07:43;12.88;;;6.95;;
34639;SDS011;22600;48.186;11.526;2023-03-01T08:10:09;15.02;;;6.90;;
34639;SDS011;22600;48.186;11.526;2023-03-01T08:12:35;14.40;;;7.13;;
34639;SDS011;22600;48.186;11.526;2023-03-01T08:15:00;13.88;;;7.00;;
34639;SDS011;22600;48.186;11.526;2023-03-01T08:17:26;13.00;;;7.32;;
34639;SDS011;22600;48.186;11.526;2023-03-01T08:19:51;13.40;;;6.85;;
34639;SDS011;22600;48.186;11.526;2023-03-01T08:22:17;13.07;;;7.30;;
34639;SDS011;22600;48.186;11.526;2023-03-01T08:24:42;14.90;;;6.95;;
34639;SDS011;22600;48.186;11.526;2023-03-01T08:27:08;12.27;;;7.07;;
34639;SDS011;22600;48.186;11.526;2023-03-01T08:29:34;14.25;;;7.13;;
34639;SDS011;22600;48.186;11.526;2023-03-01T08:31:59;11.77;;;6.57;;
34639;SDS011;22600;48.186;11.526;2023-03-01T08:34:25;12.32;;;6.85;;
34639;SDS011;22600;48.186;11.526;2023-03-01T08:36:51;14.05;;;6.90;;
34639;SDS011;22600;48.186;11.526;2023-03-01T08:39:17;12.95;;;6.68;;
34639;SDS011;22600;48.186;11.526;2023-03-01T08:41:44;13.82;;;7.07;;
34639;SDS011;22600;48.186;11.526;2023-03-01T08:44:12;12.02;;;6.60;;
34639;SDS011;22600;48.186;11.526;2023-03-01T08:46:39;11.73;;;6.70;;
34639;SDS011;22600;48.186;11.526;2023-03-01T08:49:07;10.98;;;6.60;;
34639;SDS011;22600;48.186;11.526;2023-03-01T08:51:34;12.93;;;6.80;;
34639;SDS011;22600;48.186;11.526;2023-03-01T08:54:01;13.25;;;6.80;;
34639;SDS011;22600;48.186;11.526;2023-03-01T08:56:28;11.07;;;6.75;;
34639;SDS011;22600;48.186;11.526;2023-03-01T08:58:54;15.93;;;7.25;;
34639;SDS011;22600;48.186;11.526;2023-03-01T09:01:19;11.65;;;6.55;;
34639;SDS011;22600;48.186;11.526;2023-03-01T09:03:45;11.18;;;6.15;;
34639;SDS011;22600;48.186;11.526;2023-03-01T09:06:11;10.85;;;6.32;;
34639;SDS011;22600;48.186;11.526;2023-03-01T09:08:41;10.25;;;6.43;;
34639;SDS011;22600;48.186;11.526;2023-03-01T09:11:09;11.05;;;6.82;;
34639;SDS011;22600;48.186;11.526;2023-03-01T09:13:36;12.70;;;6.40;;
34639;SDS011;22600;48.186;11.526;2023-03-01T09:16:03;12.20;;;6.32;;
34639;SDS011;22600;48.186;11.526;2023-03-01T09:18:31;9.70;;;6.25;;
34639;SDS011;22600;48.186;11.526;2023-03-01T09:21:03;11.45;;;6.15;;
34639;SDS011;22600;48.186;11.526;2023-03-01T09:23:32;13.65;;;6.40;;
34639;SDS011;22600;48.186;11.526;2023-03-01T09:25:59;10.13;;;6.20;;
34639;SDS011;22600;48.186;11.526;2023-03-01T09:28:25;12.00;;;6.32;;
34639;SDS011;22600;48.186;11.526;2023-03-01T09:30:50;11.13;;;6.13;;
34639;SDS011;22600;48.186;11.526;2023-03-01T09:33:16;11.77;;;6.50;;
34639;SDS011;22600;48.186;11.526;2023-03-01T09:35:41;12.65;;;6.53;;
34639;SDS011;22600;48.186;11.526;2023-03-01T09:38:11;11.65;;;6.13;;
34639;SDS011;22600;48.186;11.526;2023-03-01T09:40:41;9.38;;;5.97;;
34639;SDS011;22600;48.186;11.526;2023-03-01T09:43:50;11.38;;;5.75;;
34639;SDS011;22600;48.186;11.526;2023-03-01T09:46:09;10.23;;;6.13;;
34639;SDS011;22600;48.186;11.526;2023-03-01T09:48:41;12.35;;;6.18;;
34639;SDS011;22600;48.186;11.526;2023-03-01T09:51:12;10.27;;;6.32;;
34639;SDS011;22600;48.186;11.526;2023-03-01T09:53:55;10.63;;;6.35;;
34639;SDS011;22600;48.186;11.526;2023-03-01T10:04:51;9.40;;;5.82;;
34639;SDS011;22600;48.186;11.526;2023-03-01T10:07:49;8.50;;;5.68;;
34639;SDS011;22600;48.186;11.526;2023-03-01T10:10:36;10.23;;;5.55;;
34639;SDS011;22600;48.186;11.526;2023-03-01T10:15:47;10.07;;;5.88;;
34639;SDS011;22600;48.186;11.526;2023-03-01T10:18:28;8.05;;;5.93;;
34639;SDS011;22600;48.186;11.526;2023-03-01T10:21:30;10.98;;;5.63;;
34639;SDS011;22600;48.186;11.526;2023-03-01T10:23:51;9.18;;;5.80;;
34639;SDS011;22600;48.186;11.526;2023-03-01T10:26:43;8.82;;;5.70;;
34639;SDS011;22600;48.186;11.526;2023-03-01T10:29:22;9.27;;;5.50;;
34639;SDS011;22600;48.186;11.526;2023-03-01T10:31:51;9.15;;;5.30;;
34639;SDS011;22600;48.186;11.526;2023-03-01T10:34:19;10.30;;;5.45;;
34639;SDS011;22600;48.186;11.526;2023-03-01T10:42:36;10.43;;;5.85;;
34639;SDS011;22600;48.186;11.526;2023-03-01T10:45:26;9.80;;;5.60;;
34639;SDS011;22600;48.186;11.526;2023-03-01T10:48:24;11.93;;;5.75;;
34639;SDS011;22600;48.186;11.526;2023-03-01T10:53:23;10.43;;;5.47;;
34639;SDS011;22600;48.186;11.526;2023-03-01T10:55:59;10.55;;;5.38;;
34639;SDS011;22600;48.186;11.526;2023-03-01T10:58:59;9.85;;;5.00;;
34639;SDS011;22600;48.186;11.526;2023-03-01T11:01:27;8.57;;;4.95;;
34639;SDS011;22600;48.186;11.526;2023-03-01T11:04:30;8.68;;;5.47;;
34639;SDS011;22600;48.186;11.526;2023-03-01T11:06:57;9.18;;;5.43;;
34639;SDS011;22600;48.186;11.526;2023-03-01T11:09:24;6.90;;;5.07;;
34639;SDS011;22600;48.186;11.526;2023-03-01T11:11:54;9.15;;;5.50;;
34639;SDS011;22600;48.186;11.526;2023-03-01T11:14:24;8.77;;;5.28;;
34639;SDS011;22600;48.186;11.526;2023-03-01T11:17:20;9.90;;;5.57;;
34639;SDS011;22600;48.186;11.526;2023-03-01T11:20:02;8.63;;;5.57;;
34639;SDS011;22600;48.186;11.526;2023-03-01T11:22:30;9.32;;;5.18;;
34639;SDS011;22600;48.186;11.526;2023-03-01T11:24:59;8.27;;;5.30;;
34639;SDS011;22600;48.186;11.526;2023-03-01T11:27:26;10.98;;;5.13;;
34639;SDS011;22600;48.186;11.526;2023-03-01T11:29:59;8.70;;;5.10;;
34639;SDS011;22600;48.186;11.526;2023-03-01T11:32:46;8.27;;;5.15;;
34639;SDS011;22600;48.186;11.526;2023-03-01T11:35:29;8.48;;;5.18;;
34639;SDS011;22600;48.186;11.526;2023-03-01T11:40:31;9.07;;;5.15;;
34639;SDS011;22600;48.186;11.526;2023-03-01T12:00:35;7.82;;;5.05;;
34639;SDS011;22600;48.186;11.526;2023-03-01T12:03:33;8.82;;;5.18;;
34639;SDS011;22600;48.186;11.526;2023-03-01T12:11:23;8.50;;;4.78;;
34639;SDS011;22600;48.186;11.526;2023-03-01T12:35:48;7.47;;;4.88;;
34639;SDS011;22600;48.186;11.526;2023-03-01T12:38:42;9.40;;;5.20;;
34639;SDS011;22600;48.186;11.526;2023-03-01T12:43:53;8.10;;;4.90;;
34639;SDS011;22600;48.186;11.526;2023-03-01T12:46:41;8.00;;;4.72;;
34639;SDS011;22600;48.186;11.526;2023-03-01T12:49:22;8.25;;;4.63;;
34639;SDS011;22600;48.186;11.526;2023-03-01T12:51:55;7.80;;;4.93;;
34639;SDS011;22600;48.186;11.526;2023-03-01T13:10:48;6.90;;;4.55;;
34639;SDS011;22600;48.186;11.526;2023-03-01T13:13:22;7.05;;;4.50;;
34639;SDS011;22600;48.186;11.526;2023-03-01T13:20:54;9.80;;;4.90;;
34639;SDS011;22600;48.186;11.526;2023-03-01T13:28:40;6.63;;;4.53;;
34639;SDS011;22600;48.186;11.526;2023-03-01T13:33:49;9.65;;;4.70;;
34639;SDS011;22600;48.186;11.526;2023-03-01T13:36:45;6.10;;;4.47;;
34639;SDS011;22600;48.186;11.526;2023-03-01T13:42:28;6.25;;;4.68;;
34639;SDS011;22600;48.186;11.526;2023-03-01T13:44:56;6.80;;;4.60;;
34639;SDS011;22600;48.186;11.526;2023-03-01T13:47:22;6.63;;;4.38;;
34639;SDS011;22600;48.186;11.526;2023-03-01T13:49:49;6.00;;;4.40;;
34639;SDS011;22600;48.186;11.526;2023-03-01T13:55:00;6.40;;;4.10;;
34639;SDS011;22600;48.186;11.526;2023-03-01T13:57:38;7.00;;;4.65;;
34639;SDS011;22600;48.186;11.526;2023-03-01T14:00:06;6.15;;;4.20;;
34639;SDS011;22600;48.186;11.526;2023-03-01T14:03:00;6.05;;;4.50;;
34639;SDS011;22600;48.186;11.526;2023-03-01T14:05:28;6.60;;;4.20;;
34639;SDS011;22600;48.186;11.526;2023-03-01T14:07:55;6.05;;;4.32;;
34639;SDS011;22600;48.186;11.526;2023-03-01T14:10:20;7.60;;;4.47;;
34639;SDS011;22600;48.186;11.526;2023-03-01T14:12:54;6.75;;;4.68;;
34639;SDS011;22600;48.186;11.526;2023-03-01T14:15:38;8.27;;;3.95;;
34639;SDS011;22600;48.186;11.526;2023-03-01T14:20:51;6.43;;;4.28;;
34639;SDS011;22600;48.186;11.526;2023-03-01T14:23:18;6.15;;;4.28;;
34639;SDS011;22600;48.186;11.526;2023-03-01T14:25:49;6.15;;;4.20;;
34639;SDS011;22600;48.186;11.526;2023-03-01T14:28:18;6.57;;;4.28;;
34639;SDS011;22600;48.186;11.526;2023-03-01T14:30:59;6.20;;;4.20;;
34639;SDS011;22600;48.186;11.526;2023-03-01T14:33:26;6.95;;;4.18;;
34639;SDS011;22600;48.186;11.526;2023-03-01T14:35:58;6.05;;;4.07;;
34639;SDS011;22600;48.186;11.526;2023-03-01T14:41:01;16.60;;;8.80;;
34639;SDS011;22600;48.186;11.526;2023-03-01T14:43:31;11.82;;;8.13;;
34639;SDS011;22600;48.186;11.526;2023-03-01T14:45:57;13.02;;;8.52;;
34639;SDS011;22600;48.186;11.526;2023-03-01T14:48:22;11.68;;;8.23;;
34639;SDS011;22600;48.186;11.526;2023-03-01T14:50:49;13.05;;;8.63;;
34639;SDS011;22600;48.186;11.526;2023-03-01T14:53:20;15.15;;;7.55;;
34639;SDS011;22600;48.186;11.526;2023-03-01T14:55:52;11.27;;;7.32;;
34639;SDS011;22600;48.186;11.526;2023-03-01T14:58:21;11.38;;;7.25;;
34639;SDS011;22600;48.186;11.526;2023-03-01T15:00:53;10.82;;;6.95;;
34639;SDS011;22600;48.186;11.526;2023-03-01T15:03:30;9.57;;;6.70;;
34639;SDS011;22600;48.186;11.526;2023-03-01T15:06:01;9.77;;;6.43;;
34639;SDS011;22600;48.186;11.526;2023-03-01T15:13:31;9.13;;;6.13;;
34639;SDS011;22600;48.186;11.526;2023-03-01T15:20:54;8.85;;;6.10;;
34639;SDS011;22600;48.186;11.526;2023-03-01T15:23:30;8.30;;;5.82;;
34639;SDS011;22600;48.186;11.526;2023-03-01T15:25:56;8.73;;;5.97;;
34639;SDS011;22600;48.186;11.526;2023-03-01T15:28:42;9.88;;;5.40;;
34639;SDS011;22600;48.186;11.526;2023-03-01T15:31:22;10.57;;;6.00;;
34639;SDS011;22600;48.186;11.526;2023-03-01T15:33:50;10.45;;;6.03;;
34639;SDS011;22600;48.186;11.526;2023-03-01T15:39:29;8.32;;;5.55;;
34639;SDS011;22600;48.186;11.526;2023-03-01T15:41:55;8.65;;;5.65;;
34639;SDS011;22600;48.186;11.526;2023-03-01T15:44:28;8.88;;;5.97;;
34639;SDS011;22600;48.186;11.526;2023-03-01T15:46:56;7.55;;;5.55;;
34639;SDS011;22600;48.186;11.526;2023-03-01T15:51:56;6.32;;;4.88;;
34639;SDS011;22600;48.186;11.526;2023-03-01T15:54:23;8.50;;;5.90;;
34639;SDS011;22600;48.186;11.526;2023-03-01T15:56:51;9.43;;;5.70;;
34639;SDS011;22600;48.186;11.526;2023-03-01T15:59:17;8.32;;;5.50;;
34639;SDS011;22600;48.186;11.526;2023-03-01T16:01:44;7.10;;;5.22;;
34639;SDS011;22600;48.186;11.526;2023-03-01T16:04:10;6.82;;;5.18;;
34639;SDS011;22600;48.186;11.526;2023-03-01T16:06:45;8.40;;;5.47;;
34639;SDS011;22600;48.186;11.526;2023-03-01T16:09:12;6.93;;;5.25;;
34639;SDS011;22600;48.186;11.526;2023-03-01T16:11:37;7.13;;;5.05;;
34639;SDS011;22600;48.186;11.526;2023-03-01T16:14:04;7.80;;;5.05;;
34639;SDS011;22600;48.186;11.526;2023-03-01T16:16:30;8.23;;;5.30;;
34639;SDS011;22600;48.186;11.526;2023-03-01T16:18:56;9.50;;;5.22;;
34639;SDS011;22600;48.186;11.526;2023-03-01T16:21:22;7.13;;;5.15;;
34639;SDS011;22600;48.186;11.526;2023-03-01T16:23:50;7.57;;;5.00;;
34639;SDS011;22600;48.186;11.526;2023-03-01T16:26:16;6.70;;;4.85;;
34639;SDS011;22600;48.186;11.526;2023-03-01T16:28:43;6.95;;;4.93;;
34639;SDS011;22600;48.186;11.526;2023-03-01T16:31:09;6.55;;;4.93;;
34639;SDS011;22600;48.186;11.526;2023-03-01T16:33:35;9.70;;;4.95;;
34639;SDS011;22600;48.186;11.526;2023-03-01T16:36:05;6.88;;;4.90;;
34639;SDS011;22600;48.186;11.526;2023-03-01T16:38:36;6.22;;;5.07;;
34639;SDS011;22600;48.186;11.526;2023-03-01T16:41:02;7.00;;;4.97;;
34639;SDS011;22600;48.186;11.526;2023-03-01T16:43:28;8.00;;;4.93;;
34639;SDS011;22600;48.186;11.526;2023-03-01T16:45:54;8.25;;;5.20;;
34639;SDS011;22600;48.186;11.526;2023-03-01T16:48:21;9.23;;;5.28;;
34639;SDS011;22600;48.186;11.526;2023-03-01T16:50:54;6.68;;;5.05;;
34639;SDS011;22600;48.186;11.526;2023-03-01T16:53:21;8.23;;;5.10;;
34639;SDS011;22600;48.186;11.526;2023-03-01T16:55:52;8.10;;;5.25;;
34639;SDS011;22600;48.186;11.526;2023-03-01T16:58:21;7.15;;;4.90;;
34639;SDS011;22600;48.186;11.526;2023-03-01T17:00:49;8.57;;;5.15;;